sensor_id;sensor_type;location;lat;lon;timestamp;pressure;altitude;pressure_sealevel;temperature;humidity
55470;BME280;41334;47.872;16.384;2023-04-29T00:01:19;98744.16;;;11.48;81.80
55470;BME280;41334;47.872;16.384;2023-04-29T00:06:21;98739.09;;;11.50;82.51
55470;BME280;41334;47.872;16.384;2023-04-29T00:11:24;98735.38;;;11.46;83.07
55470;BME280;41334;47.872;16.384;2023-04-29T00:16:26;98731.28;;;11.43;83.26
55470;BME280;41334;47.872;16.384;2023-04-29T00:21:28;98726.84;;;11.34;85.16
55470;BME280;41334;47.872;16.384;2023-04-29T00:26:29;98721.16;;;11.21;85.88
55470;BME280;41334;47.872;16.384;2023-04-29T00:31:32;98717.91;;;11.19;84.72
55470;BME280;41334;47.872;16.384;2023-04-29T00:36:34;98718.72;;;11.20;83.14
55470;BME280;41334;47.872;16.384;2023-04-29T00:41:36;98715.94;;;11.20;83.07
55470;BME280;41334;47.872;16.384;2023-04-29T00:46:38;98712.38;;;11.19;83.65
55470;BME280;41334;47.872;16.384;2023-04-29T00:51:41;98709.75;;;11.14;84.14
55470;BME280;41334;47.872;16.384;2023-04-29T00:56:44;98711.53;;;11.10;84.18
55470;BME280;41334;47.872;16.384;2023-04-29T01:01:47;98707.13;;;11.09;83.68
55470;BME280;41334;47.872;16.384;2023-04-29T01:12:57;98698.34;;;11.07;84.36
55470;BME280;41334;47.872;16.384;2023-04-29T01:17:54;98706.13;;;11.05;84.14
55470;BME280;41334;47.872;16.384;2023-04-29T01:22:57;98706.13;;;11.05;84.02
55470;BME280;41334;47.872;16.384;2023-04-29T01:28:20;98713.28;;;11.06;84.72
55470;BME280;41334;47.872;16.384;2023-04-29T01:34:05;98708.44;;;11.03;86.27
55470;BME280;41334;47.872;16.384;2023-04-29T01:44:40;98702.72;;;10.99;85.54
55470;BME280;41334;47.872;16.384;2023-04-29T01:49:44;98693.44;;;10.95;85.84
55470;BME280;41334;47.872;16.384;2023-04-29T01:54:48;98703.66;;;10.95;86.42
55470;BME280;41334;47.872;16.384;2023-04-29T01:59:51;98704.00;;;10.93;86.76
55470;BME280;41334;47.872;16.384;2023-04-29T02:05:12;98708.84;;;10.88;85.89
55470;BME280;41334;47.872;16.384;2023-04-29T02:10:19;98698.28;;;10.90;86.01
55470;BME280;41334;47.872;16.384;2023-04-29T02:15:26;98706.25;;;10.91;86.31
55470;BME280;41334;47.872;16.384;2023-04-29T02:20:32;98697.97;;;10.91;86.51
55470;BME280;41334;47.872;16.384;2023-04-29T02:25:38;98698.63;;;10.88;86.49
55470;BME280;41334;47.872;16.384;2023-04-29T02:30:40;98699.75;;;10.87;86.25
55470;BME280;41334;47.872;16.384;2023-04-29T02:35:42;98711.28;;;10.89;87.22
55470;BME280;41334;47.872;16.384;2023-04-29T02:40:45;98705.75;;;10.89;86.92
55470;BME280;41334;47.872;16.384;2023-04-29T02:45:48;98717.28;;;10.91;87.10
55470;BME280;41334;47.872;16.384;2023-04-29T02:50:50;98722.53;;;10.93;86.84
55470;BME280;41334;47.872;16.384;2023-04-29T02:55:53;98721.19;;;10.90;86.66
55470;BME280;41334;47.872;16.384;2023-04-29T03:00:56;98725.72;;;10.86;86.39
55470;BME280;41334;47.872;16.384;2023-04-29T03:05:58;98718.91;;;10.84;86.40
55470;BME280;41334;47.872;16.384;2023-04-29T03:11:00;98722.63;;;10.79;86.00
55470;BME280;41334;47.872;16.384;2023-04-29T03:16:02;98706.66;;;10.67;85.65
55470;BME280;41334;47.872;16.384;2023-04-29T03:21:04;98709.06;;;10.60;86.04
55470;BME280;41334;47.872;16.384;2023-04-29T03:26:06;98718.44;;;10.51;83.73
55470;BME280;41334;47.872;16.384;2023-04-29T03:31:08;98712.38;;;10.48;85.48
55470;BME280;41334;47.872;16.384;2023-04-29T03:36:13;98720.00;;;10.43;85.52
55470;BME280;41334;47.872;16.384;2023-04-29T03:41:37;98714.91;;;10.36;83.90
55470;BME280;41334;47.872;16.384;2023-04-29T03:46:39;98717.81;;;10.31;84.96
55470;BME280;41334;47.872;16.384;2023-04-29T03:51:42;98708.84;;;10.26;83.99
55470;BME280;41334;47.872;16.384;2023-04-29T03:56:49;98717.47;;;10.24;83.73
55470;BME280;41334;47.872;16.384;2023-04-29T04:01:52;98714.69;;;10.24;83.95
55470;BME280;41334;47.872;16.384;2023-04-29T04:06:55;98722.97;;;10.24;84.66
55470;BME280;41334;47.872;16.384;2023-04-29T04:12:05;98728.50;;;10.24;84.39
55470;BME280;41334;47.872;16.384;2023-04-29T04:17:08;98727.84;;;10.27;84.95
55470;BME280;41334;47.872;16.384;2023-04-29T04:22:11;98724.78;;;10.29;83.61
55470;BME280;41334;47.872;16.384;2023-04-29T04:27:20;98736.81;;;10.33;83.10
55470;BME280;41334;47.872;16.384;2023-04-29T04:32:23;98728.03;;;10.31;84.08
55470;BME280;41334;47.872;16.384;2023-04-29T04:37:25;98723.66;;;10.30;84.38
55470;BME280;41334;47.872;16.384;2023-04-29T04:42:34;98722.03;;;10.29;84.39
55470;BME280;41334;47.872;16.384;2023-04-29T04:47:36;98723.66;;;10.30;85.01
55470;BME280;41334;47.872;16.384;2023-04-29T04:52:56;98723.88;;;10.42;84.92
55470;BME280;41334;47.872;16.384;2023-04-29T04:58:24;98722.34;;;10.58;83.54
55470;BME280;41334;47.872;16.384;2023-04-29T05:03:27;98719.72;;;10.84;82.85
55470;BME280;41334;47.872;16.384;2023-04-29T05:08:29;98735.78;;;11.22;80.07
55470;BME280;41334;47.872;16.384;2023-04-29T05:13:34;98739.13;;;11.59;80.08
55470;BME280;41334;47.872;16.384;2023-04-29T05:18:36;98740.16;;;11.89;80.47
55470;BME280;41334;47.872;16.384;2023-04-29T05:23:38;98738.47;;;12.40;78.93
55470;BME280;41334;47.872;16.384;2023-04-29T05:28:44;98742.91;;;12.32;78.91
55470;BME280;41334;47.872;16.384;2023-04-29T05:33:46;98747.47;;;12.28;78.01
55470;BME280;41334;47.872;16.384;2023-04-29T05:38:49;98754.59;;;12.55;78.16
55470;BME280;41334;47.872;16.384;2023-04-29T05:43:52;98761.22;;;12.80;76.21
55470;BME280;41334;47.872;16.384;2023-04-29T05:48:54;98758.72;;;12.96;75.74
55470;BME280;41334;47.872;16.384;2023-04-29T05:53:57;98762.53;;;13.29;76.28
55470;BME280;41334;47.872;16.384;2023-04-29T05:59:04;98760.94;;;13.49;74.32
55470;BME280;41334;47.872;16.384;2023-04-29T06:04:06;98768.25;;;14.04;73.13
55470;BME280;41334;47.872;16.384;2023-04-29T06:09:29;98763.88;;;14.36;70.98
55470;BME280;41334;47.872;16.384;2023-04-29T06:14:34;98763.25;;;14.19;71.55
55470;BME280;41334;47.872;16.384;2023-04-29T06:19:37;98767.06;;;14.26;70.80
55470;BME280;41334;47.872;16.384;2023-04-29T06:24:39;98768.50;;;14.53;70.72
55470;BME280;41334;47.872;16.384;2023-04-29T06:29:42;98759.88;;;14.79;70.17
55470;BME280;41334;47.872;16.384;2023-04-29T06:34:44;98754.63;;;15.48;70.11
55470;BME280;41334;47.872;16.384;2023-04-29T06:39:57;98750.00;;;15.15;69.75
55470;BME280;41334;47.872;16.384;2023-04-29T06:45:16;98757.38;;;16.09;68.52
55470;BME280;41334;47.872;16.384;2023-04-29T06:50:33;98759.31;;;16.20;66.78
55470;BME280;41334;47.872;16.384;2023-04-29T06:55:34;98767.81;;;16.00;67.74
55470;BME280;41334;47.872;16.384;2023-04-29T07:00:37;98768.22;;;16.26;65.96
55470;BME280;41334;47.872;16.384;2023-04-29T07:05:39;98768.75;;;16.88;64.44
55470;BME280;41334;47.872;16.384;2023-04-29T07:10:42;98762.28;;;16.28;65.71
55470;BME280;41334;47.872;16.384;2023-04-29T07:15:44;98752.53;;;15.93;67.13
55470;BME280;41334;47.872;16.384;2023-04-29T07:20:46;98748.09;;;16.05;69.36
55470;BME280;41334;47.872;16.384;2023-04-29T07:25:48;98749.31;;;15.67;70.99
55470;BME280;41334;47.872;16.384;2023-04-29T07:30:52;98747.59;;;16.03;68.94
55470;BME280;41334;47.872;16.384;2023-04-29T07:35:54;98753.50;;;16.13;69.85
55470;BME280;41334;47.872;16.384;2023-04-29T07:40:56;98759.06;;;16.13;69.01
55470;BME280;41334;47.872;16.384;2023-04-29T07:45:58;98765.38;;;16.38;68.39
55470;BME280;41334;47.872;16.384;2023-04-29T07:51:01;98778.50;;;17.10;66.43
55470;BME280;41334;47.872;16.384;2023-04-29T07:56:07;98777.97;;;17.04;64.46
55470;BME280;41334;47.872;16.384;2023-04-29T08:01:09;98776.47;;;17.22;64.85
55470;BME280;41334;47.872;16.384;2023-04-29T08:06:13;98771.16;;;17.33;65.44
55470;BME280;41334;47.872;16.384;2023-04-29T08:11:20;98768.06;;;17.86;63.40
55470;BME280;41334;47.872;16.384;2023-04-29T08:16:22;98771.41;;;18.30;60.55
55470;BME280;41334;47.872;16.384;2023-04-29T08:21:26;98759.34;;;18.45;60.25
55470;BME280;41334;47.872;16.384;2023-04-29T08:26:29;98778.78;;;18.96;58.17
55470;BME280;41334;47.872;16.384;2023-04-29T08:31:31;98777.47;;;19.85;54.85
55470;BME280;41334;47.872;16.384;2023-04-29T08:36:33;98783.19;;;20.49;52.77
55470;BME280;41334;47.872;16.384;2023-04-29T08:41:35;98781.38;;;20.64;52.59
55470;BME280;41334;47.872;16.384;2023-04-29T08:46:37;98788.56;;;20.95;51.77
55470;BME280;41334;47.872;16.384;2023-04-29T08:51:40;98787.00;;;21.01;50.75
55470;BME280;41334;47.872;16.384;2023-04-29T08:56:44;98787.78;;;20.34;52.73
55470;BME280;41334;47.872;16.384;2023-04-29T09:01:47;98796.47;;;19.23;56.86
55470;BME280;41334;47.872;16.384;2023-04-29T09:06:55;98805.50;;;18.55;59.48
55470;BME280;41334;47.872;16.384;2023-04-29T09:11:58;98804.53;;;17.93;63.35
55470;BME280;41334;47.872;16.384;2023-04-29T09:16:59;98799.41;;;17.00;67.02
55470;BME280;41334;47.872;16.384;2023-04-29T09:22:02;98815.91;;;16.65;67.49
55470;BME280;41334;47.872;16.384;2023-04-29T09:27:04;98839.59;;;16.43;68.60
55470;BME280;41334;47.872;16.384;2023-04-29T09:32:18;98830.16;;;15.95;69.96
55470;BME280;41334;47.872;16.384;2023-04-29T09:37:24;98834.00;;;15.90;72.26
55470;BME280;41334;47.872;16.384;2023-04-29T09:42:26;98852.69;;;15.78;70.58
55470;BME280;41334;47.872;16.384;2023-04-29T09:47:29;98822.06;;;15.78;71.65
55470;BME280;41334;47.872;16.384;2023-04-29T09:52:39;98819.88;;;16.36;71.18
55470;BME280;41334;47.872;16.384;2023-04-29T09:57:42;98809.41;;;16.33;68.91
55470;BME280;41334;47.872;16.384;2023-04-29T10:02:47;98807.78;;;17.00;67.26
55470;BME280;41334;47.872;16.384;2023-04-29T10:07:50;98807.59;;;17.09;66.56
55470;BME280;41334;47.872;16.384;2023-04-29T10:12:52;98814.00;;;17.41;65.94
55470;BME280;41334;47.872;16.384;2023-04-29T10:18:34;98804.81;;;17.40;65.95
55470;BME280;41334;47.872;16.384;2023-04-29T10:23:38;98793.00;;;18.68;65.34
55470;BME280;41334;47.872;16.384;2023-04-29T10:28:43;98782.66;;;19.34;59.82
55470;BME280;41334;47.872;16.384;2023-04-29T10:33:47;98770.13;;;20.30;56.11
55470;BME280;41334;47.872;16.384;2023-04-29T10:38:53;98760.97;;;20.37;57.06
55470;BME280;41334;47.872;16.384;2023-04-29T10:43:58;98759.59;;;20.87;55.24
55470;BME280;41334;47.872;16.384;2023-04-29T10:49:03;98758.28;;;21.15;54.48
55470;BME280;41334;47.872;16.384;2023-04-29T10:54:14;98767.59;;;20.85;55.53
55470;BME280;41334;47.872;16.384;2023-04-29T11:05:14;98774.88;;;20.90;55.10
55470;BME280;41334;47.872;16.384;2023-04-29T11:10:17;98770.03;;;20.53;56.56
55470;BME280;41334;47.872;16.384;2023-04-29T11:15:19;98750.31;;;19.89;59.00
55470;BME280;41334;47.872;16.384;2023-04-29T11:20:21;98751.06;;;19.60;60.08
55470;BME280;41334;47.872;16.384;2023-04-29T11:25:24;98741.66;;;19.49;59.42
55470;BME280;41334;47.872;16.384;2023-04-29T11:30:28;98731.06;;;20.18;58.94
55470;BME280;41334;47.872;16.384;2023-04-29T11:35:30;98733.22;;;20.58;57.25
55470;BME280;41334;47.872;16.384;2023-04-29T11:40:32;98720.97;;;20.40;56.69
55470;BME280;41334;47.872;16.384;2023-04-29T11:45:34;98714.84;;;20.34;56.16
55470;BME280;41334;47.872;16.384;2023-04-29T11:50:36;98731.78;;;20.41;55.66
55470;BME280;41334;47.872;16.384;2023-04-29T11:55:41;98727.19;;;20.56;57.46
55470;BME280;41334;47.872;16.384;2023-04-29T12:00:43;98715.53;;;21.36;54.00
55470;BME280;41334;47.872;16.384;2023-04-29T12:05:54;98708.00;;;21.47;52.56
55470;BME280;41334;47.872;16.384;2023-04-29T12:10:58;98706.28;;;21.94;52.16
55470;BME280;41334;47.872;16.384;2023-04-29T12:16:00;98695.75;;;22.64;49.97
55470;BME280;41334;47.872;16.384;2023-04-29T12:21:02;98702.19;;;22.71;49.29
55470;BME280;41334;47.872;16.384;2023-04-29T12:26:04;98704.69;;;23.16;46.53
55470;BME280;41334;47.872;16.384;2023-04-29T12:31:08;98694.59;;;23.86;45.14
55470;BME280;41334;47.872;16.384;2023-04-29T12:36:17;98690.47;;;24.19;43.73
55470;BME280;41334;47.872;16.384;2023-04-29T12:41:19;98696.81;;;24.48;42.43
55470;BME280;41334;47.872;16.384;2023-04-29T12:46:21;98679.19;;;24.19;42.22
55470;BME280;41334;47.872;16.384;2023-04-29T12:51:36;98682.34;;;24.28;42.82
55470;BME280;41334;47.872;16.384;2023-04-29T12:56:38;98676.19;;;24.62;41.75
55470;BME280;41334;47.872;16.384;2023-04-29T13:01:40;98681.41;;;24.60;42.61
55470;BME280;41334;47.872;16.384;2023-04-29T13:06:42;98675.28;;;24.76;42.16
55470;BME280;41334;47.872;16.384;2023-04-29T13:11:44;98663.59;;;25.71;39.75
55470;BME280;41334;47.872;16.384;2023-04-29T13:16:47;98654.88;;;26.87;37.81
55470;BME280;41334;47.872;16.384;2023-04-29T13:21:49;98644.03;;;27.09;37.71
55470;BME280;41334;47.872;16.384;2023-04-29T13:26:53;98639.09;;;26.59;38.67
55470;BME280;41334;47.872;16.384;2023-04-29T13:31:55;98640.56;;;27.22;35.34
55470;BME280;41334;47.872;16.384;2023-04-29T13:36:57;98638.34;;;27.09;37.68
55470;BME280;41334;47.872;16.384;2023-04-29T13:42:00;98635.94;;;27.55;36.40
55470;BME280;41334;47.872;16.384;2023-04-29T13:47:02;98624.81;;;26.67;39.06
55470;BME280;41334;47.872;16.384;2023-04-29T13:52:06;98632.28;;;25.51;39.76
55470;BME280;41334;47.872;16.384;2023-04-29T13:57:28;98643.63;;;24.33;43.02
55470;BME280;41334;47.872;16.384;2023-04-29T14:02:38;98640.78;;;21.93;48.70
55470;BME280;41334;47.872;16.384;2023-04-29T14:07:40;98686.03;;;20.71;54.10
55470;BME280;41334;47.872;16.384;2023-04-29T14:12:42;98677.81;;;19.88;56.08
55470;BME280;41334;47.872;16.384;2023-04-29T14:17:44;98685.81;;;19.59;57.22
55470;BME280;41334;47.872;16.384;2023-04-29T14:22:46;98702.19;;;20.14;54.86
55470;BME280;41334;47.872;16.384;2023-04-29T14:27:48;98726.53;;;19.76;55.36
55470;BME280;41334;47.872;16.384;2023-04-29T14:32:50;98718.28;;;19.60;55.54
55470;BME280;41334;47.872;16.384;2023-04-29T14:37:52;98719.66;;;19.24;56.10
55470;BME280;41334;47.872;16.384;2023-04-29T14:42:54;98708.78;;;19.69;55.89
55470;BME280;41334;47.872;16.384;2023-04-29T14:47:56;98685.81;;;19.59;55.50
55470;BME280;41334;47.872;16.384;2023-04-29T14:52:59;98678.75;;;20.66;53.16
55470;BME280;41334;47.872;16.384;2023-04-29T14:58:02;98676.03;;;20.74;53.40
55470;BME280;41334;47.872;16.384;2023-04-29T15:08:11;98659.63;;;21.79;47.88
55470;BME280;41334;47.872;16.384;2023-04-29T15:13:13;98658.13;;;22.10;46.29
55470;BME280;41334;47.872;16.384;2023-04-29T15:18:16;98654.72;;;22.73;43.96
55470;BME280;41334;47.872;16.384;2023-04-29T15:23:18;98657.16;;;22.79;42.16
55470;BME280;41334;47.872;16.384;2023-04-29T15:28:20;98660.44;;;21.79;44.12
55470;BME280;41334;47.872;16.384;2023-04-29T15:33:25;98668.03;;;21.20;44.43
55470;BME280;41334;47.872;16.384;2023-04-29T15:38:27;98688.13;;;20.81;45.56
55470;BME280;41334;47.872;16.384;2023-04-29T15:43:30;98691.81;;;20.48;48.15
55470;BME280;41334;47.872;16.384;2023-04-29T15:48:33;98730.44;;;19.72;49.35
55470;BME280;41334;47.872;16.384;2023-04-29T15:53:35;98743.91;;;18.13;61.15
55470;BME280;41334;47.872;16.384;2023-04-29T15:58:37;98720.72;;;17.42;63.83
55470;BME280;41334;47.872;16.384;2023-04-29T16:03:39;98699.44;;;17.53;64.81
55470;BME280;41334;47.872;16.384;2023-04-29T16:09:02;98700.81;;;17.43;64.25
55470;BME280;41334;47.872;16.384;2023-04-29T16:14:05;98694.25;;;17.71;61.01
55470;BME280;41334;47.872;16.384;2023-04-29T16:19:07;98686.66;;;17.87;60.20
55470;BME280;41334;47.872;16.384;2023-04-29T16:24:09;98706.50;;;17.82;59.92
55470;BME280;41334;47.872;16.384;2023-04-29T16:29:11;98739.03;;;17.90;60.69
55470;BME280;41334;47.872;16.384;2023-04-29T16:34:14;98739.34;;;16.74;65.22
55470;BME280;41334;47.872;16.384;2023-04-29T16:39:16;98752.31;;;16.27;67.60
55470;BME280;41334;47.872;16.384;2023-04-29T16:44:18;98763.34;;;16.51;65.88
55470;BME280;41334;47.872;16.384;2023-04-29T16:49:23;98773.66;;;16.63;64.14
55470;BME280;41334;47.872;16.384;2023-04-29T16:54:26;98801.63;;;16.66;64.54
55470;BME280;41334;47.872;16.384;2023-04-29T16:59:29;98811.03;;;16.62;66.19
55470;BME280;41334;47.872;16.384;2023-04-29T17:04:31;98786.56;;;16.55;66.40
55470;BME280;41334;47.872;16.384;2023-04-29T17:09:33;98749.22;;;16.88;65.67
55470;BME280;41334;47.872;16.384;2023-04-29T17:14:35;98751.09;;;16.68;65.73
55470;BME280;41334;47.872;16.384;2023-04-29T17:19:40;98774.19;;;16.96;65.34
55470;BME280;41334;47.872;16.384;2023-04-29T17:24:43;98785.22;;;16.77;66.35
55470;BME280;41334;47.872;16.384;2023-04-29T17:29:47;98803.22;;;16.39;69.27
55470;BME280;41334;47.872;16.384;2023-04-29T17:34:50;98804.41;;;15.86;70.64
55470;BME280;41334;47.872;16.384;2023-04-29T17:39:53;98787.13;;;15.56;70.68
55470;BME280;41334;47.872;16.384;2023-04-29T17:44:56;98801.00;;;15.19;73.35
55470;BME280;41334;47.872;16.384;2023-04-29T17:49:58;98798.25;;;14.86;71.33
55470;BME280;41334;47.872;16.384;2023-04-29T17:55:03;98808.59;;;14.64;73.46
55470;BME280;41334;47.872;16.384;2023-04-29T18:00:07;98814.31;;;14.47;74.58
55470;BME280;41334;47.872;16.384;2023-04-29T18:05:09;98825.22;;;14.31;73.69
55470;BME280;41334;47.872;16.384;2023-04-29T18:10:12;98824.59;;;14.26;74.06
55470;BME280;41334;47.872;16.384;2023-04-29T18:15:18;98825.75;;;14.04;75.36
55470;BME280;41334;47.872;16.384;2023-04-29T18:20:22;98842.22;;;13.79;75.45
55470;BME280;41334;47.872;16.384;2023-04-29T18:25:24;98849.22;;;13.56;76.80
55470;BME280;41334;47.872;16.384;2023-04-29T18:30:27;98854.50;;;13.40;77.19
55470;BME280;41334;47.872;16.384;2023-04-29T18:35:29;98866.28;;;13.28;77.38
55470;BME280;41334;47.872;16.384;2023-04-29T18:40:32;98879.69;;;13.26;76.60
55470;BME280;41334;47.872;16.384;2023-04-29T18:45:34;98889.41;;;13.41;79.11
55470;BME280;41334;47.872;16.384;2023-04-29T18:50:36;98899.84;;;13.44;79.84
55470;BME280;41334;47.872;16.384;2023-04-29T18:55:38;98905.69;;;13.51;78.83
55470;BME280;41334;47.872;16.384;2023-04-29T19:00:40;98912.38;;;13.59;78.73
55470;BME280;41334;47.872;16.384;2023-04-29T19:05:42;98909.41;;;13.64;78.11
55470;BME280;41334;47.872;16.384;2023-04-29T19:10:47;98919.50;;;13.69;77.10
55470;BME280;41334;47.872;16.384;2023-04-29T19:15:49;98926.69;;;13.70;77.32
55470;BME280;41334;47.872;16.384;2023-04-29T19:20:53;98936.16;;;13.69;76.35
55470;BME280;41334;47.872;16.384;2023-04-29T19:25:56;98931.28;;;13.66;76.86
55470;BME280;41334;47.872;16.384;2023-04-29T19:30:59;98929.50;;;13.61;76.47
55470;BME280;41334;47.872;16.384;2023-04-29T19:36:01;98929.84;;;13.59;76.72
55470;BME280;41334;47.872;16.384;2023-04-29T19:41:05;98923.84;;;13.49;77.41
55470;BME280;41334;47.872;16.384;2023-04-29T19:46:07;98932.00;;;13.45;78.23
55470;BME280;41334;47.872;16.384;2023-04-29T19:51:15;98938.88;;;13.39;79.20
55470;BME280;41334;47.872;16.384;2023-04-29T19:56:17;98941.81;;;13.25;79.88
55470;BME280;41334;47.872;16.384;2023-04-29T20:01:22;98952.75;;;13.04;78.89
55470;BME280;41334;47.872;16.384;2023-04-29T20:06:24;98954.56;;;12.92;80.44
55470;BME280;41334;47.872;16.384;2023-04-29T20:11:28;98941.84;;;12.73;81.46
55470;BME280;41334;47.872;16.384;2023-04-29T20:16:32;98957.97;;;12.54;81.28
55470;BME280;41334;47.872;16.384;2023-04-29T20:21:36;98958.44;;;12.39;82.37
55470;BME280;41334;47.872;16.384;2023-04-29T20:26:39;98948.94;;;12.22;82.09
55470;BME280;41334;47.872;16.384;2023-04-29T20:31:41;98954.16;;;12.15;81.75
55470;BME280;41334;47.872;16.384;2023-04-29T20:36:43;98961.34;;;12.33;82.89
55470;BME280;41334;47.872;16.384;2023-04-29T20:41:45;98964.47;;;12.49;82.01
55470;BME280;41334;47.872;16.384;2023-04-29T20:46:47;98968.56;;;12.61;83.15
55470;BME280;41334;47.872;16.384;2023-04-29T20:51:50;98981.13;;;12.67;82.11
55470;BME280;41334;47.872;16.384;2023-04-29T20:56:51;98989.28;;;12.72;81.42
55470;BME280;41334;47.872;16.384;2023-04-29T21:01:55;98990.25;;;12.76;80.20
55470;BME280;41334;47.872;16.384;2023-04-29T21:06:57;98997.28;;;12.82;80.82
55470;BME280;41334;47.872;16.384;2023-04-29T21:11:59;98992.22;;;12.84;81.13
55470;BME280;41334;47.872;16.384;2023-04-29T21:17:04;98999.56;;;12.89;80.79
55470;BME280;41334;47.872;16.384;2023-04-29T21:22:06;99001.19;;;12.90;80.22
55470;BME280;41334;47.872;16.384;2023-04-29T21:27:08;99012.78;;;12.92;79.66
55470;BME280;41334;47.872;16.384;2023-04-29T21:32:10;99031.03;;;12.93;81.76
55470;BME280;41334;47.872;16.384;2023-04-29T21:37:12;99039.50;;;12.88;81.14
55470;BME280;41334;47.872;16.384;2023-04-29T21:42:14;99054.84;;;12.85;81.44
55470;BME280;41334;47.872;16.384;2023-04-29T21:47:22;99056.13;;;12.79;81.79
55470;BME280;41334;47.872;16.384;2023-04-29T21:52:24;99052.84;;;12.68;82.29
55470;BME280;41334;47.872;16.384;2023-04-29T21:57:26;99051.50;;;12.48;82.60
55470;BME280;41334;47.872;16.384;2023-04-29T22:02:44;99051.25;;;12.27;83.52
55470;BME280;41334;47.872;16.384;2023-04-29T22:07:46;99046.19;;;12.21;84.19
55470;BME280;41334;47.872;16.384;2023-04-29T22:12:48;99050.91;;;12.20;81.89
55470;BME280;41334;47.872;16.384;2023-04-29T22:17:50;99055.94;;;12.18;82.46
55470;BME280;41334;47.872;16.384;2023-04-29T22:22:52;99054.78;;;12.11;83.26
55470;BME280;41334;47.872;16.384;2023-04-29T22:27:54;99056.53;;;12.06;82.76
55470;BME280;41334;47.872;16.384;2023-04-29T22:32:56;99054.09;;;12.05;83.03
55470;BME280;41334;47.872;16.384;2023-04-29T22:37:58;99046.59;;;12.05;82.46
55470;BME280;41334;47.872;16.384;2023-04-29T22:43:00;99046.94;;;12.04;81.50
55470;BME280;41334;47.872;16.384;2023-04-29T22:48:02;99049.19;;;12.02;82.02
55470;BME280;41334;47.872;16.384;2023-04-29T22:53:03;99039.88;;;11.98;82.85
55470;BME280;41334;47.872;16.384;2023-04-29T22:58:05;99056.00;;;11.96;84.24
55470;BME280;41334;47.872;16.384;2023-04-29T23:03:07;99060.53;;;11.92;83.24
55470;BME280;41334;47.872;16.384;2023-04-29T23:08:12;99061.34;;;11.92;83.54
55470;BME280;41334;47.872;16.384;2023-04-29T23:13:15;99060.22;;;11.93;82.45
55470;BME280;41334;47.872;16.384;2023-04-29T23:18:17;99062.34;;;11.96;82.99
55470;BME280;41334;47.872;16.384;2023-04-29T23:23:19;99063.69;;;11.99;83.74
55470;BME280;41334;47.872;16.384;2023-04-29T23:28:21;99059.38;;;11.93;85.05
55470;BME280;41334;47.872;16.384;2023-04-29T23:33:23;99066.06;;;11.92;84.50
55470;BME280;41334;47.872;16.384;2023-04-29T23:38:25;99071.09;;;11.90;81.99
55470;BME280;41334;47.872;16.384;2023-04-29T23:43:27;99055.81;;;11.92;82.41
55470;BME280;41334;47.872;16.384;2023-04-29T23:48:29;99063.28;;;11.92;80.70
55470;BME280;41334;47.872;16.384;2023-04-29T23:53:31;99060.22;;;11.93;80.81
55470;BME280;41334;47.872;16.384;2023-04-29T23:58:33;99068.81;;;11.92;80.86
